sensor_id;sensor_type;location;lat;lon;timestamp;pressure;altitude;pressure_sealevel;temperature
73761;BMP280;69240;43.530;-5.646;2023-04-29T00:01:07;101610.13;;;17.21
73761;BMP280;69240;43.530;-5.646;2023-04-29T00:03:33;101617.06;;;17.22
73761;BMP280;69240;43.530;-5.646;2023-04-29T00:05:59;101607.22;;;17.19
73761;BMP280;69240;43.530;-5.646;2023-04-29T00:08:27;101605.69;;;17.18
73761;BMP280;69240;43.530;-5.646;2023-04-29T00:10:53;101603.28;;;17.20
73761;BMP280;69240;43.530;-5.646;2023-04-29T00:13:18;101606.25;;;17.22
73761;BMP280;69240;43.530;-5.646;2023-04-29T00:15:44;101608.69;;;17.20
73761;BMP280;69240;43.530;-5.646;2023-04-29T00:18:10;101607.72;;;17.23
73761;BMP280;69240;43.530;-5.646;2023-04-29T00:20:36;101602.78;;;17.21
73761;BMP280;69240;43.530;-5.646;2023-04-29T00:23:04;101602.81;;;17.27
73761;BMP280;69240;43.530;-5.646;2023-04-29T00:25:31;101601.91;;;17.30
73761;BMP280;69240;43.530;-5.646;2023-04-29T00:27:56;101601.34;;;17.26
73761;BMP280;69240;43.530;-5.646;2023-04-29T00:30:26;101592.97;;;17.24
73761;BMP280;69240;43.530;-5.646;2023-04-29T00:32:52;101589.47;;;17.18
73761;BMP280;69240;43.530;-5.646;2023-04-29T00:35:19;101585.22;;;17.11
73761;BMP280;69240;43.530;-5.646;2023-04-29T00:37:45;101590.22;;;17.18
73761;BMP280;69240;43.530;-5.646;2023-04-29T00:40:10;101586.38;;;17.25
73761;BMP280;69240;43.530;-5.646;2023-04-29T00:42:39;101588.28;;;17.19
73761;BMP280;69240;43.530;-5.646;2023-04-29T00:45:06;101586.59;;;17.27
73761;BMP280;69240;43.530;-5.646;2023-04-29T00:47:32;101592.81;;;17.33
73761;BMP280;69240;43.530;-5.646;2023-04-29T00:49:57;101587.13;;;17.31
73761;BMP280;69240;43.530;-5.646;2023-04-29T00:52:23;101594.31;;;17.34
73761;BMP280;69240;43.530;-5.646;2023-04-29T00:54:49;101588.88;;;17.34
73761;BMP280;69240;43.530;-5.646;2023-04-29T00:57:16;101584.72;;;17.33
73761;BMP280;69240;43.530;-5.646;2023-04-29T00:59:43;101585.69;;;17.30
73761;BMP280;69240;43.530;-5.646;2023-04-29T01:02:09;101584.53;;;17.11
73761;BMP280;69240;43.530;-5.646;2023-04-29T01:04:35;101585.03;;;17.15
73761;BMP280;69240;43.530;-5.646;2023-04-29T01:07:21;101591.50;;;17.23
73761;BMP280;69240;43.530;-5.646;2023-04-29T01:10:03;101581.00;;;17.05
73761;BMP280;69240;43.530;-5.646;2023-04-29T01:12:51;101584.06;;;16.92
73761;BMP280;69240;43.530;-5.646;2023-04-29T01:18:11;101575.72;;;16.90
73761;BMP280;69240;43.530;-5.646;2023-04-29T01:20:40;101573.63;;;16.80
73761;BMP280;69240;43.530;-5.646;2023-04-29T01:23:06;101572.81;;;16.74
73761;BMP280;69240;43.530;-5.646;2023-04-29T01:25:31;101563.75;;;16.77
73761;BMP280;69240;43.530;-5.646;2023-04-29T01:30:55;101568.25;;;16.60
73761;BMP280;69240;43.530;-5.646;2023-04-29T01:33:31;101579.81;;;16.60
73761;BMP280;69240;43.530;-5.646;2023-04-29T01:36:32;101576.84;;;16.58
73761;BMP280;69240;43.530;-5.646;2023-04-29T01:39:24;101567.75;;;16.56
73761;BMP280;69240;43.530;-5.646;2023-04-29T01:44:46;101563.41;;;16.64
73761;BMP280;69240;43.530;-5.646;2023-04-29T01:47:12;101566.91;;;16.70
73761;BMP280;69240;43.530;-5.646;2023-04-29T01:49:38;101575.94;;;16.67
73761;BMP280;69240;43.530;-5.646;2023-04-29T01:52:04;101571.91;;;16.57
73761;BMP280;69240;43.530;-5.646;2023-04-29T01:54:31;101573.91;;;16.62
73761;BMP280;69240;43.530;-5.646;2023-04-29T01:57:01;101568.34;;;16.45
73761;BMP280;69240;43.530;-5.646;2023-04-29T01:59:26;101569.22;;;16.37
73761;BMP280;69240;43.530;-5.646;2023-04-29T02:01:52;101577.38;;;16.42
73761;BMP280;69240;43.530;-5.646;2023-04-29T02:04:17;101578.66;;;16.47
73761;BMP280;69240;43.530;-5.646;2023-04-29T02:06:43;101572.91;;;16.59
73761;BMP280;69240;43.530;-5.646;2023-04-29T02:09:08;101571.91;;;16.37
73761;BMP280;69240;43.530;-5.646;2023-04-29T02:11:34;101591.47;;;16.32
73761;BMP280;69240;43.530;-5.646;2023-04-29T02:13:59;101588.78;;;16.52
73761;BMP280;69240;43.530;-5.646;2023-04-29T02:16:25;101581.78;;;16.40
73761;BMP280;69240;43.530;-5.646;2023-04-29T02:18:51;101584.19;;;16.38
73761;BMP280;69240;43.530;-5.646;2023-04-29T02:21:16;101586.44;;;16.39
73761;BMP280;69240;43.530;-5.646;2023-04-29T02:23:42;101590.50;;;16.49
73761;BMP280;69240;43.530;-5.646;2023-04-29T02:26:07;101581.47;;;16.58
73761;BMP280;69240;43.530;-5.646;2023-04-29T02:28:34;101580.81;;;16.43
73761;BMP280;69240;43.530;-5.646;2023-04-29T02:31:00;101585.00;;;16.64
73761;BMP280;69240;43.530;-5.646;2023-04-29T02:33:26;101584.94;;;16.38
73761;BMP280;69240;43.530;-5.646;2023-04-29T02:35:52;101582.84;;;16.48
73761;BMP280;69240;43.530;-5.646;2023-04-29T02:38:17;101591.09;;;16.39
73761;BMP280;69240;43.530;-5.646;2023-04-29T02:40:44;101586.75;;;16.47
73761;BMP280;69240;43.530;-5.646;2023-04-29T02:43:10;101580.81;;;16.43
73761;BMP280;69240;43.530;-5.646;2023-04-29T02:45:36;101581.34;;;16.47
73761;BMP280;69240;43.530;-5.646;2023-04-29T02:48:03;101584.34;;;16.49
73761;BMP280;69240;43.530;-5.646;2023-04-29T02:50:28;101565.72;;;16.51
73761;BMP280;69240;43.530;-5.646;2023-04-29T02:52:54;101563.13;;;16.62
73761;BMP280;69240;43.530;-5.646;2023-04-29T02:55:19;101556.25;;;16.61
73761;BMP280;69240;43.530;-5.646;2023-04-29T02:57:45;101553.94;;;16.54
73761;BMP280;69240;43.530;-5.646;2023-04-29T03:00:12;101550.97;;;16.52
73761;BMP280;69240;43.530;-5.646;2023-04-29T03:02:37;101562.84;;;16.60
73761;BMP280;69240;43.530;-5.646;2023-04-29T03:05:03;101554.69;;;16.54
73761;BMP280;69240;43.530;-5.646;2023-04-29T03:07:30;101565.06;;;16.61
73761;BMP280;69240;43.530;-5.646;2023-04-29T03:09:55;101568.06;;;16.63
73761;BMP280;69240;43.530;-5.646;2023-04-29T03:12:21;101577.63;;;16.64
73761;BMP280;69240;43.530;-5.646;2023-04-29T03:14:47;101576.63;;;16.62
73761;BMP280;69240;43.530;-5.646;2023-04-29T03:17:13;101585.53;;;16.68
73761;BMP280;69240;43.530;-5.646;2023-04-29T03:19:39;101591.53;;;16.77
73761;BMP280;69240;43.530;-5.646;2023-04-29T03:22:05;101579.03;;;16.80
73761;BMP280;69240;43.530;-5.646;2023-04-29T03:24:32;101581.22;;;16.76
73761;BMP280;69240;43.530;-5.646;2023-04-29T03:26:58;101586.63;;;16.76
73761;BMP280;69240;43.530;-5.646;2023-04-29T03:29:24;101583.13;;;16.70
73761;BMP280;69240;43.530;-5.646;2023-04-29T03:31:52;101593.72;;;16.73
73761;BMP280;69240;43.530;-5.646;2023-04-29T03:34:18;101592.06;;;16.56
73761;BMP280;69240;43.530;-5.646;2023-04-29T03:36:43;101600.06;;;16.70
73761;BMP280;69240;43.530;-5.646;2023-04-29T03:39:09;101597.94;;;16.80
73761;BMP280;69240;43.530;-5.646;2023-04-29T03:41:36;101600.19;;;16.81
73761;BMP280;69240;43.530;-5.646;2023-04-29T03:44:01;101600.53;;;16.69
73761;BMP280;69240;43.530;-5.646;2023-04-29T03:46:27;101606.28;;;16.76
73761;BMP280;69240;43.530;-5.646;2023-04-29T03:48:52;101592.53;;;16.80
73761;BMP280;69240;43.530;-5.646;2023-04-29T03:51:21;101601.88;;;16.79
73761;BMP280;69240;43.530;-5.646;2023-04-29T03:53:47;101594.56;;;16.85
73761;BMP280;69240;43.530;-5.646;2023-04-29T03:56:12;101590.66;;;16.86
73761;BMP280;69240;43.530;-5.646;2023-04-29T03:58:38;101587.47;;;16.87
73761;BMP280;69240;43.530;-5.646;2023-04-29T04:01:03;101584.81;;;16.93
73761;BMP280;69240;43.530;-5.646;2023-04-29T04:03:29;101584.81;;;16.93
73761;BMP280;69240;43.530;-5.646;2023-04-29T04:05:54;101587.69;;;16.84
73761;BMP280;69240;43.530;-5.646;2023-04-29T04:08:22;101582.75;;;16.82
73761;BMP280;69240;43.530;-5.646;2023-04-29T04:10:48;101587.41;;;16.82
73761;BMP280;69240;43.530;-5.646;2023-04-29T04:13:13;101581.59;;;16.69
73761;BMP280;69240;43.530;-5.646;2023-04-29T04:15:39;101583.44;;;16.77
73761;BMP280;69240;43.530;-5.646;2023-04-29T04:18:05;101579.50;;;16.78
73761;BMP280;69240;43.530;-5.646;2023-04-29T04:20:31;101583.63;;;16.74
73761;BMP280;69240;43.530;-5.646;2023-04-29T04:22:56;101578.06;;;16.83
73761;BMP280;69240;43.530;-5.646;2023-04-29T04:25:22;101575.38;;;16.83
73761;BMP280;69240;43.530;-5.646;2023-04-29T04:27:47;101585.66;;;16.79
73761;BMP280;69240;43.530;-5.646;2023-04-29T04:30:13;101574.34;;;16.75
73761;BMP280;69240;43.530;-5.646;2023-04-29T04:32:38;101586.13;;;16.77
73761;BMP280;69240;43.530;-5.646;2023-04-29T04:35:05;101587.31;;;16.31
73761;BMP280;69240;43.530;-5.646;2023-04-29T04:37:31;101588.47;;;16.44
73761;BMP280;69240;43.530;-5.646;2023-04-29T04:39:57;101588.78;;;16.52
73761;BMP280;69240;43.530;-5.646;2023-04-29T04:42:22;101608.72;;;16.54
73761;BMP280;69240;43.530;-5.646;2023-04-29T04:44:48;101604.06;;;16.55
73761;BMP280;69240;43.530;-5.646;2023-04-29T04:47:13;101607.69;;;16.52
73761;BMP280;69240;43.530;-5.646;2023-04-29T04:49:39;101604.19;;;16.66
73761;BMP280;69240;43.530;-5.646;2023-04-29T04:52:04;101607.69;;;16.52
73761;BMP280;69240;43.530;-5.646;2023-04-29T04:54:30;101614.06;;;16.49
73761;BMP280;69240;43.530;-5.646;2023-04-29T04:56:56;101620.06;;;16.58
73761;BMP280;69240;43.530;-5.646;2023-04-29T04:59:21;101637.59;;;16.48
73761;BMP280;69240;43.530;-5.646;2023-04-29T05:01:47;101634.63;;;16.61
73761;BMP280;69240;43.530;-5.646;2023-04-29T05:04:12;101642.56;;;16.70
73761;BMP280;69240;43.530;-5.646;2023-04-29T05:06:39;101648.22;;;16.72
73761;BMP280;69240;43.530;-5.646;2023-04-29T05:09:05;101643.63;;;16.78
73761;BMP280;69240;43.530;-5.646;2023-04-29T05:11:30;101641.75;;;16.84
73761;BMP280;69240;43.530;-5.646;2023-04-29T05:13:56;101644.72;;;16.86
73761;BMP280;69240;43.530;-5.646;2023-04-29T05:16:22;101648.13;;;16.81
73761;BMP280;69240;43.530;-5.646;2023-04-29T05:18:47;101655.31;;;16.89
73761;BMP280;69240;43.530;-5.646;2023-04-29T05:21:13;101661.72;;;16.92
73761;BMP280;69240;43.530;-5.646;2023-04-29T05:23:38;101655.31;;;16.89
73761;BMP280;69240;43.530;-5.646;2023-04-29T05:26:04;101651.19;;;16.94
73761;BMP280;69240;43.530;-5.646;2023-04-29T05:28:29;101658.34;;;16.77
73761;BMP280;69240;43.530;-5.646;2023-04-29T05:30:55;101664.78;;;16.79
73761;BMP280;69240;43.530;-5.646;2023-04-29T05:33:21;101665.66;;;16.91
73761;BMP280;69240;43.530;-5.646;2023-04-29T05:35:47;101662.41;;;16.87
73761;BMP280;69240;43.530;-5.646;2023-04-29T05:38:12;101660.00;;;16.89
73761;BMP280;69240;43.530;-5.646;2023-04-29T05:40:38;101650.66;;;16.90
73761;BMP280;69240;43.530;-5.646;2023-04-29T05:43:03;101661.19;;;16.88
73761;BMP280;69240;43.530;-5.646;2023-04-29T05:45:29;101664.97;;;16.96
73761;BMP280;69240;43.530;-5.646;2023-04-29T05:47:54;101661.31;;;16.99
73761;BMP280;69240;43.530;-5.646;2023-04-29T05:50:20;101675.88;;;17.07
73761;BMP280;69240;43.530;-5.646;2023-04-29T05:52:45;101665.28;;;17.03
73761;BMP280;69240;43.530;-5.646;2023-04-29T05:55:11;101661.91;;;17.08
73761;BMP280;69240;43.530;-5.646;2023-04-29T05:57:36;101669.81;;;17.12
73761;BMP280;69240;43.530;-5.646;2023-04-29T06:00:02;101672.00;;;17.08
73761;BMP280;69240;43.530;-5.646;2023-04-29T06:02:31;101667.00;;;17.01
73761;BMP280;69240;43.530;-5.646;2023-04-29T06:04:56;101686.06;;;16.92
73761;BMP280;69240;43.530;-5.646;2023-04-29T06:07:22;101684.22;;;16.83
73761;BMP280;69240;43.530;-5.646;2023-04-29T06:09:48;101677.84;;;16.81
73761;BMP280;69240;43.530;-5.646;2023-04-29T06:12:14;101688.03;;;16.71
73761;BMP280;69240;43.530;-5.646;2023-04-29T06:14:39;101682.50;;;16.60
73761;BMP280;69240;43.530;-5.646;2023-04-29T06:17:05;101682.66;;;16.57
73761;BMP280;69240;43.530;-5.646;2023-04-29T06:19:30;101690.09;;;16.62
73761;BMP280;69240;43.530;-5.646;2023-04-29T06:21:57;101686.31;;;16.54
73761;BMP280;69240;43.530;-5.646;2023-04-29T06:24:23;101695.47;;;16.76
73761;BMP280;69240;43.530;-5.646;2023-04-29T06:26:48;101687.41;;;16.82
73761;BMP280;69240;43.530;-5.646;2023-04-29T06:29:15;101691.06;;;16.99
73761;BMP280;69240;43.530;-5.646;2023-04-29T06:31:40;101698.50;;;17.04
73761;BMP280;69240;43.530;-5.646;2023-04-29T06:34:06;101688.34;;;16.99
73761;BMP280;69240;43.530;-5.646;2023-04-29T06:36:32;101684.28;;;17.09
73761;BMP280;69240;43.530;-5.646;2023-04-29T06:38:57;101687.97;;;17.11
73761;BMP280;69240;43.530;-5.646;2023-04-29T06:41:23;101687.28;;;17.11
73761;BMP280;69240;43.530;-5.646;2023-04-29T06:43:49;101697.53;;;17.07
73761;BMP280;69240;43.530;-5.646;2023-04-29T06:46:15;101700.09;;;17.16
73761;BMP280;69240;43.530;-5.646;2023-04-29T06:48:40;101698.19;;;17.22
73761;BMP280;69240;43.530;-5.646;2023-04-29T06:51:06;101703.16;;;17.03
73761;BMP280;69240;43.530;-5.646;2023-04-29T06:53:32;101704.53;;;16.93
73761;BMP280;69240;43.530;-5.646;2023-04-29T06:55:57;101710.91;;;17.16
73761;BMP280;69240;43.530;-5.646;2023-04-29T06:58:23;101720.03;;;17.18
73761;BMP280;69240;43.530;-5.646;2023-04-29T07:00:49;101725.47;;;17.18
73761;BMP280;69240;43.530;-5.646;2023-04-29T07:03:16;101728.75;;;17.28
73761;BMP280;69240;43.530;-5.646;2023-04-29T07:05:44;101724.69;;;17.18
73761;BMP280;69240;43.530;-5.646;2023-04-29T07:08:11;101732.09;;;17.17
73761;BMP280;69240;43.530;-5.646;2023-04-29T07:10:57;101736.47;;;17.15
73761;BMP280;69240;43.530;-5.646;2023-04-29T07:13:23;101733.34;;;17.02
73761;BMP280;69240;43.530;-5.646;2023-04-29T07:15:49;101728.09;;;16.93
73761;BMP280;69240;43.530;-5.646;2023-04-29T07:18:14;101728.75;;;16.88
73761;BMP280;69240;43.530;-5.646;2023-04-29T07:20:40;101725.00;;;17.00
73761;BMP280;69240;43.530;-5.646;2023-04-29T07:23:06;101731.50;;;17.08
73761;BMP280;69240;43.530;-5.646;2023-04-29T07:25:38;101736.19;;;16.93
73761;BMP280;69240;43.530;-5.646;2023-04-29T07:28:03;101738.59;;;17.05
73761;BMP280;69240;43.530;-5.646;2023-04-29T07:30:29;101747.84;;;17.19
73761;BMP280;69240;43.530;-5.646;2023-04-29T07:33:13;101748.38;;;17.23
73761;BMP280;69240;43.530;-5.646;2023-04-29T07:35:39;101742.16;;;17.17
73761;BMP280;69240;43.530;-5.646;2023-04-29T07:38:07;101746.97;;;17.07
73761;BMP280;69240;43.530;-5.646;2023-04-29T07:40:33;101745.53;;;16.92
73761;BMP280;69240;43.530;-5.646;2023-04-29T07:46:20;101761.34;;;16.79
